Time;durP1;ratioP1;P1;durP2;ratioP2;P2;SDS_P1;SDS_P2;PMS_P1;PMS_P2;Temp;Humidity;BMP_temperature;BMP_pressure;BME280_temperature;BME280_humidity;BME280_pressure;Samples;Min_cycle;Max_cycle;Signal;HPM_P1;HPM_P2
2021/06/29 00:02:23;;;;;;;7.37;6.57;;;17.00;99.90;;;;;;5030552;28;20195;-71
2021/06/29 00:04:50;;;;;;;9.20;7.20;;;16.90;99.90;;;;;;5030053;28;20577;-71
2021/06/29 00:07:16;;;;;;;7.70;6.10;;;16.90;99.90;;;;;;5031403;28;20431;-71
2021/06/29 00:09:41;;;;;;;9.10;6.70;;;17.00;99.90;;;;;;5032504;28;20410;-72
2021/06/29 00:12:08;;;;;;;8.30;6.93;;;16.90;99.90;;;;;;5031214;28;20207;-72
2021/06/29 00:14:34;;;;;;;6.97;6.13;;;16.80;99.90;;;;;;5032225;28;20195;-72
2021/06/29 00:16:59;;;;;;;7.70;6.63;;;17.00;99.90;;;;;;5031197;28;20837;-72
2021/06/29 00:19:25;;;;;;;8.20;6.67;;;17.10;99.90;;;;;;5032485;28;20192;-72
2021/06/29 00:21:51;;;;;;;9.83;7.23;;;17.10;99.90;;;;;;5031055;28;20621;-72
2021/06/29 00:24:17;;;;;;;8.53;6.27;;;17.10;99.90;;;;;;5032226;28;20247;-72
2021/06/29 00:26:42;;;;;;;8.87;6.77;;;17.20;99.90;;;;;;5031119;28;20176;-72
2021/06/29 00:29:08;;;;;;;8.10;5.77;;;17.20;99.90;;;;;;5032197;28;20241;-72
2021/06/29 00:31:34;;;;;;;8.43;6.70;;;17.20;99.90;;;;;;5030924;28;20654;-72
2021/06/29 00:34:00;;;;;;;6.53;5.53;;;17.30;99.90;;;;;;5032109;28;20920;-72
2021/06/29 00:36:26;;;;;;;8.07;6.27;;;17.30;99.90;;;;;;5031194;28;20184;-72
2021/06/29 00:38:52;;;;;;;7.43;5.83;;;17.30;99.90;;;;;;5030996;28;20470;-72
2021/06/29 00:41:17;;;;;;;7.70;6.33;;;17.40;99.90;;;;;;5031194;28;20180;-70
2021/06/29 00:43:51;;;;;;;7.53;5.53;;;17.40;99.90;;;;;;5032138;28;20677;-70
2021/06/29 00:46:18;;;;;;;11.13;6.20;;;17.30;99.90;;;;;;5031027;28;20186;-71
2021/06/29 00:48:44;;;;;;;6.90;6.20;;;17.50;99.90;;;;;;5032222;28;20426;-71
2021/06/29 00:51:18;;;;;;;6.93;5.60;;;17.50;99.90;;;;;;5031309;28;20431;-71
2021/06/29 00:53:45;;;;;;;8.90;5.63;;;17.50;99.90;;;;;;5032136;28;20890;-71
2021/06/29 00:56:14;;;;;;;6.30;5.70;;;17.50;99.90;;;;;;5030018;28;20443;-72
2021/06/29 00:58:47;;;;;;;8.30;5.20;;;17.60;99.90;;;;;;5031753;28;20442;-71
2021/06/29 01:01:13;;;;;;;5.17;4.60;;;17.60;99.90;;;;;;5030595;28;20784;-70
2021/06/29 01:03:40;;;;;;;6.40;5.60;;;17.60;99.90;;;;;;5030689;28;20962;-71
2021/06/29 01:06:08;;;;;;;6.00;5.33;;;17.60;99.90;;;;;;5031885;28;20620;-71
2021/06/29 01:08:34;;;;;;;8.03;5.90;;;17.60;99.90;;;;;;5030831;28;20900;-71
2021/06/29 01:11:00;;;;;;;5.80;5.20;;;17.60;99.90;;;;;;5032067;28;20406;-71
2021/06/29 01:13:46;;;;;;;5.80;5.20;;;17.40;99.90;;;;;;5031174;28;20183;-71
2021/06/29 01:16:12;;;;;;;7.63;6.60;;;17.40;99.90;;;;;;5032249;28;20246;-71
2021/06/29 01:18:40;;;;;;;6.63;6.03;;;17.30;99.90;;;;;;5030681;28;20479;-71
2021/06/29 01:21:11;;;;;;;8.20;5.60;;;17.30;99.90;;;;;;5028480;28;20434;-70
2021/06/29 01:23:37;;;;;;;5.50;4.97;;;17.30;99.90;;;;;;5031200;28;20457;-71
2021/06/29 01:31:32;;;;;;;6.50;5.50;;;17.30;99.90;;;;;;5028235;28;20986;-71
2021/06/29 01:33:58;;;;;;;6.93;5.07;;;17.40;99.90;;;;;;5031534;28;20425;-70
2021/06/29 01:36:27;;;;;;;8.50;6.30;;;17.50;99.90;;;;;;5032036;28;20403;-70
2021/06/29 01:38:52;;;;;;;7.73;6.03;;;17.50;99.90;;;;;;5030503;28;20587;-70
2021/06/29 01:41:23;;;;;;;7.80;5.47;;;17.60;99.90;;;;;;5016050;28;20523;-70
2021/06/29 01:44:01;;;;;;;6.60;5.90;;;17.50;99.90;;;;;;5026105;28;20208;-69
2021/06/29 01:46:30;;;;;;;6.17;5.43;;;17.60;99.90;;;;;;5033704;28;20391;-70
2021/06/29 01:48:56;;;;;;;6.67;5.60;;;17.50;99.90;;;;;;5033630;28;20454;-70
2021/06/29 01:51:23;;;;;;;5.87;5.30;;;17.40;99.90;;;;;;5033877;28;20430;-69
2021/06/29 01:53:50;;;;;;;7.20;5.50;;;17.40;99.90;;;;;;5033305;28;20218;-70
2021/06/29 01:56:17;;;;;;;6.83;5.60;;;17.40;99.90;;;;;;5034961;28;20417;-70
2021/06/29 01:58:53;;;;;;;6.10;5.50;;;17.40;99.90;;;;;;5021943;28;20451;-70
2021/06/29 02:01:20;;;;;;;7.30;6.10;;;17.50;99.90;;;;;;5015294;28;20437;-70
2021/06/29 02:03:46;;;;;;;7.23;6.20;;;17.40;99.90;;;;;;5026667;28;20458;-70
2021/06/29 02:06:13;;;;;;;8.67;6.30;;;17.40;99.90;;;;;;5034735;28;20407;-69
2021/06/29 02:08:38;;;;;;;7.10;5.80;;;17.60;99.90;;;;;;5033820;28;20339;-70
2021/06/29 02:11:04;;;;;;;6.17;5.57;;;17.70;99.90;;;;;;5034047;28;20517;-71
2021/06/29 02:13:30;;;;;;;6.03;5.43;;;17.70;99.90;;;;;;5022911;28;20173;-70
2021/06/29 02:15:56;;;;;;;6.67;5.77;;;17.80;99.90;;;;;;5014687;28;20204;-71
2021/06/29 02:18:24;;;;;;;9.07;5.50;;;17.90;99.90;;;;;;5031176;28;20192;-70
2021/06/29 02:20:50;;;;;;;7.07;5.83;;;17.90;99.90;;;;;;5032387;28;20428;-70
2021/06/29 02:23:16;;;;;;;7.20;5.77;;;17.70;99.90;;;;;;5033456;28;20450;-70
2021/06/29 02:25:42;;;;;;;6.37;5.20;;;17.70;99.90;;;;;;5034444;28;20183;-69
2021/06/29 02:28:10;;;;;;;6.20;5.60;;;17.80;99.90;;;;;;5043267;23;20281;-89
2021/06/29 02:30:40;;;;;;;7.63;6.00;;;17.70;99.90;;;;;;5046854;28;20172;-88
2021/06/29 02:33:06;;;;;;;6.20;5.53;;;17.70;99.90;;;;;;5043966;28;20521;-87
2021/06/29 02:35:32;;;;;;;7.23;6.33;;;17.60;99.90;;;;;;5038770;28;20438;-86
2021/06/29 02:40:55;;;;;;;9.30;5.43;;;;;;;;;;5027996;28;20400;-86
2021/06/29 02:43:21;;;;;;;6.00;5.33;;;;;;;;;;5038392;28;20439;-86
2021/06/29 02:45:50;;;;;;;7.23;6.30;;;;;;;;;;5046082;28;20443;-87
2021/06/29 02:48:20;;;;;;;6.13;5.30;;;;;;;;;;5051448;28;21000;-88
2021/06/29 02:50:46;;;;;;;5.87;4.90;;;;;;;;;;5063171;28;20483;-88
2021/06/29 02:53:17;;;;;;;7.67;5.30;;;;;;;;;;5061043;28;20427;-89
2021/06/29 02:55:53;;;;;;;8.23;4.90;;;;;;;;;;5043140;28;20439;-87
2021/06/29 02:58:23;;;;;;;5.40;4.90;;;;;;;;;;5039958;28;20452;-87
2021/06/29 03:00:49;;;;;;;6.90;5.20;;;;;;;;;;5043944;28;20423;-89
2021/06/29 03:03:45;;;;;;;7.10;5.33;;;;;;;;;;5042368;28;20518;-88
2021/06/29 03:06:10;;;;;;;15.40;5.77;;;;;;;;;;5041452;28;20407;-86
2021/06/29 03:08:37;;;;;;;5.63;5.10;;;;;;;;;;5040306;28;21025;-86
2021/06/29 03:11:08;;;;;;;7.23;5.87;;;;;;;;;;5039065;28;20497;-89
2021/06/29 03:13:37;;;;;;;12.77;5.10;;;;;;;;;;5045557;28;20426;-87
2021/06/29 03:16:14;;;;;;;9.37;5.97;;;;;;;;;;5040503;28;20411;-88
2021/06/29 03:18:42;;;;;;;5.87;5.27;;;;;;;;;;5035852;28;21082;-88
2021/06/29 03:21:11;;;;;;;6.33;5.27;;;;;;;;;;5052925;28;20431;-89
2021/06/29 03:23:38;;;;;;;7.30;6.10;;;;;;;;;;5033797;28;20505;-88
2021/06/29 03:26:13;;;;;;;5.60;4.80;;;;;;;;;;5038516;28;20423;-86
2021/06/29 03:28:43;;;;;;;8.40;5.60;;;;;;;;;;5045704;28;20786;-87
2021/06/29 03:31:20;;;;;;;7.33;5.47;;;;;;;;;;5042770;28;20446;-88
2021/06/29 03:33:51;;;;;;;5.27;4.77;;;;;;;;;;5040610;28;20447;-89
2021/06/29 03:36:23;;;;;;;5.63;5.03;;;;;;;;;;5025697;28;20590;-89
2021/06/29 03:38:51;;;;;;;10.73;5.20;;;;;;;;;;5033405;28;20584;-89
2021/06/29 03:41:17;;;;;;;8.20;5.20;;;;;;;;;;5044933;28;20403;-88
2021/06/29 03:44:00;;;;;;;4.57;4.17;;;;;;;;;;5041247;28;20513;-89
2021/06/29 03:46:29;;;;;;;4.70;4.20;;;;;;;;;;5044766;28;20398;-88
2021/06/29 03:48:58;;;;;;;6.83;4.87;;;;;;;;;;5058627;28;20419;-87
2021/06/29 03:51:24;;;;;;;5.90;4.70;;;;;;;;;;5043800;28;20931;-89
2021/06/29 03:53:53;;;;;;;7.60;5.80;;;;;;;;;;5038435;28;20451;-88
2021/06/29 03:56:28;;;;;;;4.67;4.27;;;;;;;;;;5025490;28;20392;-88
2021/06/29 03:58:58;;;;;;;5.40;4.77;;;;;;;;;;5045782;28;20447;-89
2021/06/29 04:01:28;;;;;;;4.97;4.40;;;;;;;;;;5039315;28;20415;-89
2021/06/29 04:06:26;;;;;;;4.40;3.87;;;;;;;;;;5012227;28;20494;-69
2021/06/29 04:08:52;;;;;;;6.00;5.03;;;;;;;;;;5012544;28;20829;-69
2021/06/29 04:11:19;;;;;;;5.40;4.77;;;;;;;;;;5013646;28;20432;-70
2021/06/29 04:13:45;;;;;;;7.83;5.83;;;;;;;;;;5010800;28;20928;-70
2021/06/29 04:16:11;;;;;;;7.10;4.33;;;;;;;;;;5014238;28;20411;-70
2021/06/29 04:18:37;;;;;;;4.83;4.30;;;;;;;;;;5007544;28;20793;-70
2021/06/29 04:21:03;;;;;;;5.80;5.20;;;;;;;;;;4993899;28;20408;-70
2021/06/29 04:23:29;;;;;;;7.33;5.20;;;;;;;;;;4997656;28;21004;-70
2021/06/29 04:25:55;;;;;;;6.07;5.17;;;;;;;;;;5013359;28;20404;-70
2021/06/29 04:28:22;;;;;;;6.00;4.60;;;;;;;;;;5005626;28;20456;-70
2021/06/29 04:30:48;;;;;;;7.10;4.60;;;;;;;;;;4993692;28;20405;-70
2021/06/29 04:33:14;;;;;;;6.00;5.23;;;;;;;;;;4993603;28;20526;-70
2021/06/29 04:35:40;;;;;;;6.50;4.97;;;;;;;;;;4993666;28;20409;-70
2021/06/29 04:38:06;;;;;;;6.20;5.00;;;;;;;;;;4993959;28;20404;-70
2021/06/29 04:40:32;;;;;;;7.40;4.23;;;;;;;;;;5013393;28;20495;-70
2021/06/29 04:42:58;;;;;;;5.40;4.90;;;;;;;;;;5012147;28;20544;-70
2021/06/29 04:45:26;;;;;;;9.90;5.03;;;;;;;;;;5012261;28;20790;-70
2021/06/29 04:47:53;;;;;;;6.63;4.83;;;;;;;;;;5013338;28;20408;-70
2021/06/29 04:50:19;;;;;;;11.63;4.90;;;;;;;;;;5011782;28;20505;-70
2021/06/29 04:52:45;;;;;;;6.03;4.13;;;;;;;;;;5011681;28;20957;-70
2021/06/29 04:55:12;;;;;;;5.33;4.53;;;;;;;;;;5012008;28;20433;-70
2021/06/29 04:57:38;;;;;;;4.10;3.70;;;;;;;;;;5012907;28;20408;-70
2021/06/29 05:00:09;;;;;;;4.90;4.27;;;;;;;;;;5012052;28;20919;-70
2021/06/29 05:02:36;;;;;;;4.60;4.13;;;;;;;;;;5010592;28;20947;-69
2021/06/29 05:05:02;;;;;;;6.00;4.33;;;;;;;;;;5004025;28;20985;-67
2021/06/29 05:07:28;;;;;;;4.50;3.70;;;;;;;;;;5012697;28;20787;-67
2021/06/29 05:09:54;;;;;;;5.87;3.80;;;;;;;;;;5012490;28;20799;-67
2021/06/29 05:12:20;;;;;;;4.47;4.07;;;;;;;;;;5008902;28;20424;-65
2021/06/29 05:14:46;;;;;;;4.63;3.97;;;;;;;;;;5012550;28;20443;-66
2021/06/29 05:17:12;;;;;;;4.40;3.10;;;;;;;;;;5013160;28;20530;-67
2021/06/29 05:19:39;;;;;;;3.87;3.00;;;;;;;;;;5006175;28;20435;-67
2021/06/29 05:22:05;;;;;;;3.83;3.10;;;;;;;;;;5016080;28;20426;-67
2021/06/29 05:24:31;;;;;;;3.97;2.90;;;;;;;;;;5016680;28;20458;-65
2021/06/29 05:26:57;;;;;;;4.80;3.33;;;;;;;;;;5016492;28;20944;-64
2021/06/29 05:29:23;;;;;;;3.53;3.07;;;;;;;;;;5015149;28;20427;-67
2021/06/29 05:31:49;;;;;;;3.70;3.07;;;;;;;;;;5017453;28;20411;-65
2021/06/29 05:34:15;;;;;;;4.30;3.40;;;;;;;;;;5016559;28;20435;-66
2021/06/29 05:36:42;;;;;;;6.87;3.50;;;;;;;;;;5015417;28;20794;-67
2021/06/29 05:39:09;;;;;;;6.63;3.53;;;;;;;;;;5014850;28;20421;-66
2021/06/29 05:41:35;;;;;;;5.10;3.10;;;;;;;;;;5016424;28;20427;-69
2021/06/29 05:44:01;;;;;;;5.10;3.07;;;;;;;;;;5014979;28;20839;-69
2021/06/29 05:46:27;;;;;;;3.83;3.03;;;;;;;;;;5016254;28;20469;-69
2021/06/29 05:48:54;;;;;;;4.30;2.70;;;;;;;;;;5014989;28;20420;-67
2021/06/29 05:51:20;;;;;;;3.80;3.03;;;;;;;;;;5016816;28;20453;-68
2021/06/29 05:53:46;;;;;;;4.87;2.77;;;;;;;;;;5015687;28;20444;-69
2021/06/29 05:56:12;;;;;;;5.40;3.10;;;;;;;;;;5010351;28;20428;-68
2021/06/29 05:58:39;;;;;;;3.00;2.70;;;;;;;;;;5014772;28;20490;-69
2021/06/29 06:01:06;;;;;;;4.03;3.47;;;;;;;;;;5016087;28;20404;-65
2021/06/29 06:03:32;;;;;;;4.80;3.20;;;;;;;;;;5014903;28;20459;-66
2021/06/29 06:05:58;;;;;;;3.50;3.20;;;;;;;;;;5014800;28;20473;-67
2021/06/29 06:08:24;;;;;;;6.60;3.50;;;;;;;;;;5014321;28;20786;-67
2021/06/29 06:10:50;;;;;;;7.10;3.53;;;;;;;;;;5015759;28;20447;-66
2021/06/29 06:13:17;;;;;;;4.70;3.40;;;;;;;;;;5016702;28;20439;-66
2021/06/29 06:15:43;;;;;;;3.87;2.90;;;;;;;;;;5015360;28;20420;-66
2021/06/29 06:18:09;;;;;;;4.47;3.30;;;;;;;;;;5015864;28;20400;-67
2021/06/29 06:20:35;;;;;;;4.77;2.63;;;;;;;;;;4996093;28;20416;-67
2021/06/29 06:23:02;;;;;;;3.47;2.87;;;;;;;;;;5017121;28;20486;-68
2021/06/29 06:25:28;;;;;;;4.13;2.57;;;;;;;;;;5014921;28;20424;-68
2021/06/29 06:27:54;;;;;;;4.00;2.73;;;;;;;;;;5014482;28;20435;-66
2021/06/29 06:30:20;;;;;;;5.60;3.40;;;;;;;;;;5012097;28;20877;-67
2021/06/29 06:32:46;;;;;;;3.37;2.00;;;;;;;;;;5015322;28;20495;-68
2021/06/29 06:35:13;;;;;;;4.63;2.90;;;;;;;;;;5014025;28;20811;-67
2021/06/29 06:37:39;;;;;;;6.03;2.67;;;;;;;;;;5015730;28;20904;-67
2021/06/29 06:40:05;;;;;;;3.17;2.87;;;;;;;;;;5014361;28;20419;-67
2021/06/29 06:42:31;;;;;;;5.63;3.67;;;;;;;;;;5014028;28;20483;-68
2021/06/29 06:44:58;;;;;;;4.80;2.93;;;;;;;;;;5014271;28;20860;-67
2021/06/29 06:47:24;;;;;;;2.67;2.43;;;;;;;;;;5008511;28;20424;-67
2021/06/29 06:49:50;;;;;;;6.43;3.70;;;;;;;;;;5010194;28;20447;-68
2021/06/29 06:52:17;;;;;;;9.23;4.10;;;;;;;;;;5014903;28;20498;-68
2021/06/29 06:54:43;;;;;;;8.60;3.80;;;;;;;;;;5010267;28;20440;-67
2021/06/29 06:57:09;;;;;;;5.23;3.10;;;;;;;;;;5016268;28;20454;-68
2021/06/29 06:59:35;;;;;;;4.63;3.30;;;;;;;;;;5012227;28;20432;-67
2021/06/29 07:02:01;;;;;;;5.60;3.47;;;;;;;;;;5003139;28;20424;-66
2021/06/29 07:04:27;;;;;;;4.87;2.93;;;;;;;;;;5003989;28;20471;-66
2021/06/29 07:06:54;;;;;;;3.70;2.97;;;;;;;;;;5004851;28;20425;-68
2021/06/29 07:09:20;;;;;;;3.87;3.20;;;;;;;;;;5008219;28;20920;-68
2021/06/29 07:11:46;;;;;;;3.47;3.03;;;;;;;;;;5013468;28;20764;-67
2021/06/29 07:14:12;;;;;;;4.77;3.13;;;;;;;;;;5009397;28;20450;-67
2021/06/29 07:16:39;;;;;;;3.80;3.20;;;;;;;;;;5009498;28;20463;-66
2021/06/29 07:19:05;;;;;;;2.97;2.30;;;;;;;;;;5005486;28;20454;-68
2021/06/29 07:21:31;;;;;;;4.30;2.83;;;;;;;;;;5011600;28;20419;-66
2021/06/29 07:23:58;;;;;;;3.03;2.30;;;;;;;;;;5007501;28;20894;-66
2021/06/29 07:26:24;;;;;;;3.57;3.00;;;;;;;;;;5012433;28;20428;-66
2021/06/29 07:28:50;;;;;;;3.30;2.57;;;;;;;;;;5012652;28;20509;-68
2021/06/29 07:31:19;;;;;;;3.43;2.77;;;;;;;;;;5007900;28;20427;-70
2021/06/29 07:33:46;;;;;;;4.07;2.50;;;;;;;;;;5014917;28;20523;-70
2021/06/29 07:36:12;;;;;;;4.30;2.23;;;;;;;;;;5010232;28;20927;-68
2021/06/29 07:38:39;;;;;;;4.10;2.50;;;;;;;;;;5013594;28;20759;-69
2021/06/29 07:41:05;;;;;;;3.60;2.57;;;;;;;;;;5011476;28;20814;-69
2021/06/29 07:43:31;;;;;;;2.80;2.20;;;;;;;;;;5012326;28;20539;-73
2021/06/29 07:45:57;;;;;;;3.27;2.20;;;;;;;;;;5011343;28;20431;-73
2021/06/29 07:48:24;;;;;;;4.10;2.40;;;;;;;;;;5012827;28;20470;-72
2021/06/29 07:50:50;;;;;;;3.87;1.80;;;;;;;;;;5009118;28;20430;-72
2021/06/29 07:53:16;;;;;;;4.47;2.67;;;;;;;;;;5012321;28;20443;-72
2021/06/29 07:55:43;;;;;;;2.30;2.03;;;;;;;;;;5009928;28;20432;-72
2021/06/29 07:58:09;;;;;;;2.70;2.20;;;;;;;;;;5012796;28;20523;-74
2021/06/29 08:00:38;;;;;;;2.80;1.90;;;;;;;;;;5006598;28;20426;-72
2021/06/29 08:03:05;;;;;;;3.20;2.60;;;;;;;;;;5013040;28;20544;-70
2021/06/29 08:05:31;;;;;;;3.80;2.50;;;;;;;;;;5009667;28;20816;-69
2021/06/29 08:07:57;;;;;;;2.70;2.00;;;;;;;;;;5013841;28;20519;-71
2021/06/29 08:10:23;;;;;;;2.40;1.93;;;;;;;;;;5010525;28;20424;-71
2021/06/29 08:12:50;;;;;;;4.33;2.47;;;;;;;;;;5013469;28;20415;-69
2021/06/29 08:15:16;;;;;;;2.47;1.97;;;;;;;;;;5011846;28;20498;-70
2021/06/29 08:17:46;;;;;;;5.30;2.50;;;;;;;;;;5013706;28;20416;-70
2021/06/29 08:20:13;;;;;;;3.17;2.27;;;;;;;;;;5009835;28;20464;-70
2021/06/29 08:22:39;;;;;;;2.63;1.67;;;;;;;;;;5010324;28;20462;-68
2021/06/29 08:25:06;;;;;;;3.77;1.80;;;;;;;;;;5008935;28;20419;-70
2021/06/29 08:27:32;;;;;;;2.97;1.70;;;;;;;;;;5007736;28;20423;-68
2021/06/29 08:29:58;;;;;;;3.63;2.20;;;;;;;;;;5012255;28;20435;-68
2021/06/29 08:32:27;;;;;;;4.20;2.00;;;;;;;;;;5011420;28;20448;-68
2021/06/29 08:34:54;;;;;;;3.60;1.70;;;;;;;;;;5009951;28;20449;-70
2021/06/29 08:37:21;;;;;;;2.27;1.73;;;;;;;;;;5008679;28;20486;-70
2021/06/29 08:39:47;;;;;;;4.10;2.53;;;;;;;;;;5010071;28;20907;-70
2021/06/29 08:42:13;;;;;;;2.40;1.80;;;;;;;;;;5010488;28;20904;-70
2021/06/29 08:44:40;;;;;;;3.50;2.80;;;;;;;;;;5006682;28;20771;-71
2021/06/29 08:47:09;;;;;;;2.97;1.90;;;;;;;;;;5010196;28;21031;-71
2021/06/29 08:49:35;;;;;;;2.53;1.60;;;;;;;;;;5012839;28;20430;-72
2021/06/29 08:52:03;;;;;;;3.47;2.00;;;;;;;;;;5012579;28;20419;-71
2021/06/29 08:54:29;;;;;;;2.90;1.83;;;;;;;;;;5012942;28;20521;-70
2021/06/29 08:56:55;;;;;;;4.30;2.17;;;;;;;;;;5013889;28;20427;-71
2021/06/29 08:59:21;;;;;;;2.20;1.73;;;;;;;;;;5011596;28;20430;-73
2021/06/29 09:01:47;;;;;;;2.30;1.87;;;;;;;;;;5017674;28;20426;-73
2021/06/29 09:04:13;;;;;;;5.23;2.10;;;;;;;;;;5012062;28;20450;-73
2021/06/29 09:06:41;;;;;;;2.47;1.87;;;;;;;;;;5022022;28;20801;-70
2021/06/29 09:09:26;;;;;;;3.57;2.40;;;;;;;;;;5015590;28;20423;-69
2021/06/29 09:11:52;;;;;;;2.77;1.60;;;;;;;;;;5014950;28;20422;-71
2021/06/29 09:14:19;;;;;;;4.67;2.30;;;;;;;;;;5014983;28;20581;-68
2021/06/29 09:16:47;;;;;;;3.23;1.87;;;;;;;;;;5015287;28;20439;-71
2021/06/29 09:19:14;;;;;;;2.47;1.60;;;;;;;;;;5012666;28;20760;-69
2021/06/29 09:21:41;;;;;;;2.33;1.80;;;;;;;;;;5010594;28;20917;-71
2021/06/29 09:24:07;;;;;;;3.43;1.50;;;;;;;;;;5014943;28;20994;-70
2021/06/29 09:26:38;;;;;;;2.30;1.60;;;;;;;;;;5013291;28;20431;-70
2021/06/29 09:29:06;;;;;;;2.63;1.57;;;;;;;;;;5015221;28;20445;-67
2021/06/29 09:31:33;;;;;;;2.13;1.43;;;;;;;;;;5013637;28;20773;-68
2021/06/29 09:34:08;;;;;;;1.83;1.20;;;;;;;;;;5024751;28;20500;-70
2021/06/29 09:36:36;;;;;;;2.30;1.50;;;;;;;;;;5015413;28;20426;-70
2021/06/29 09:39:08;;;;;;;3.10;1.50;;;;;;;;;;5012176;28;20435;-69
2021/06/29 09:41:35;;;;;;;4.57;1.40;;;;;;;;;;5010028;28;20428;-69
2021/06/29 09:44:04;;;;;;;2.97;1.30;;;;;;;;;;5013381;28;20474;-71
2021/06/29 09:46:30;;;;;;;2.43;1.77;;;;;;;;;;5012247;28;20419;-68
2021/06/29 09:48:59;;;;;;;2.37;1.43;;;;;;;;;;5014769;28;20788;-68
2021/06/29 09:51:28;;;;;;;2.10;1.40;;;;;;;;;;5014413;28;20430;-68
2021/06/29 09:53:55;;;;;;;2.13;1.60;;;;;;;;;;5011947;28;20521;-70
2021/06/29 09:56:43;;;;;;;3.20;1.50;;;;;;;;;;5015042;28;20423;-69
2021/06/29 09:59:13;;;;;;;2.97;1.20;;;;;;;;;;5009800;28;20420;-71
2021/06/29 10:01:39;;;;;;;2.67;1.20;;;;;;;;;;5012681;28;20428;-71
2021/06/29 10:04:06;;;;;;;3.97;1.10;;;;;;;;;;5012714;28;20529;-70
2021/06/29 10:06:33;;;;;;;2.27;1.57;;;;;;;;;;5012055;28;20454;-73
2021/06/29 10:08:59;;;;;;;2.80;1.80;;;;;;;;;;5015960;28;20911;-68
2021/06/29 10:11:26;;;;;;;3.23;1.53;;;;;;;;;;5010746;28;20431;-74
2021/06/29 10:14:00;;;;;;;1.97;1.30;;;;;;;;;;5014820;28;20506;-71
2021/06/29 10:16:42;;;;;;;2.40;1.70;;;;;;;;;;5018498;28;20505;-71
2021/06/29 10:21:42;;;;;;;2.30;1.37;;;;;;;;;;5011912;28;20463;-72
2021/06/29 10:24:09;;;;;;;1.90;1.20;;;;;;;;;;5011468;28;20461;-72
2021/06/29 10:26:40;;;;;;;3.50;1.50;;;;;;;;;;5011323;28;20427;-68
2021/06/29 10:29:13;;;;;;;2.37;1.83;;;;;;;;;;5013434;28;20426;-69
2021/06/29 10:31:44;;;;;;;2.17;1.13;;;;;;;;;;5012326;28;20462;-70
2021/06/29 10:34:11;;;;;;;1.90;1.00;;;;;;;;;;5014108;28;20959;-70
2021/06/29 10:36:39;;;;;;;2.83;1.53;;;;;;;;;;5011961;28;20478;-69
2021/06/29 10:39:06;;;;;;;2.13;1.40;;;;;;;;;;5014091;28;20423;-69
2021/06/29 10:41:33;;;;;;;2.97;1.70;;;;;;;;;;5004471;28;20436;-69
2021/06/29 10:43:59;;;;;;;2.23;1.70;;;;;;;;;;5002971;28;20557;-69
2021/06/29 10:46:28;;;;;;;2.83;1.47;;;;;;;;;;5010868;28;20428;-69
2021/06/29 10:49:13;;;;;;;2.10;1.40;;;;;;;;;;5021088;28;20420;-69
2021/06/29 10:51:39;;;;;;;2.60;2.10;;;;;;;;;;5009172;28;20419;-69
2021/06/29 10:54:25;;;;;;;3.43;1.30;;;;;;;;;;5012657;28;20454;-69
2021/06/29 10:56:53;;;;;;;2.70;1.60;;;;;;;;;;5011378;28;20900;-68
2021/06/29 10:59:31;;;;;;;2.00;1.37;;;;;;;;;;5010513;28;20431;-68
2021/06/29 11:01:57;;;;;;;2.37;1.60;;;;;;;;;;5011037;28;20434;-69
2021/06/29 11:04:41;;;;;;;3.20;1.87;;;;;;;;;;5008036;28;20577;-69
2021/06/29 11:07:40;;;;;;;2.30;1.30;;;;;;;;;;5009316;28;20987;-67
2021/06/29 11:10:10;;;;;;;3.00;1.73;;;;;;;;;;4966634;28;20944;-67
2021/06/29 11:12:39;;;;;;;3.90;1.57;;;;;;;;;;5014131;28;20419;-67
2021/06/29 11:15:09;;;;;;;3.30;1.80;;;;;;;;;;5004192;28;20958;-65
2021/06/29 11:17:51;;;;;;;4.60;1.80;;;;;;;;;;5010184;28;20439;-69
2021/06/29 11:20:22;;;;;;;3.53;1.37;;;;;;;;;;5010602;28;20469;-68
2021/06/29 11:22:58;;;;;;;1.77;1.20;;;;;;;;;;5013779;28;20951;-69
2021/06/29 11:25:30;;;;;;;3.60;1.77;;;;;;;;;;5012457;28;20427;-66
2021/06/29 11:28:02;;;;;;;1.80;1.23;;;;;;;;;;5010574;28;20415;-69
2021/06/29 11:30:47;;;;;;;2.87;1.33;;;;;;;;;;5011515;28;20820;-65
2021/06/29 11:33:31;;;;;;;2.23;1.27;;;;;;;;;;5010646;28;20455;-69
2021/06/29 11:35:58;;;;;;;2.20;1.20;;;;;;;;;;5014432;28;20431;-65
2021/06/29 11:38:34;;;;;;;2.00;1.57;;;;;;;;;;5012470;28;20415;-66
2021/06/29 11:41:27;;;;;;;3.43;2.10;;;;;;;;;;5106536;27;20560;-65
2021/06/29 11:43:58;;;;;;;6.90;5.23;;;;;;;;;;5100077;28;20451;-69
2021/06/29 11:46:42;;;;;;;2.67;1.67;;;;;;;;;;5097171;28;20435;-69
2021/06/29 11:49:08;;;;;;;2.37;1.37;;;;;;;;;;5101936;28;20430;-72
2021/06/29 11:51:49;;;;;;;2.20;1.40;;;;;;;;;;5098685;28;20946;-67
2021/06/29 11:54:48;;;;;;;3.70;1.53;;;;;;;;;;5106685;28;20806;-68
2021/06/29 11:57:23;;;;;;;2.30;1.40;;;;;;;;;;5091040;28;20426;-67
2021/06/29 11:59:54;;;;;;;2.20;1.50;;;;;;;;;;5100413;28;20462;-68
2021/06/29 12:02:21;;;;;;;4.90;1.43;;;;;;;;;;5107238;28;20429;-68
2021/06/29 12:04:54;;;;;;;2.17;1.13;;;;;;;;;;5105792;28;20791;-70
2021/06/29 12:07:30;;;;;;;2.50;1.53;;;;;;;;;;5102414;28;20784;-69
2021/06/29 12:09:56;;;;;;;2.93;1.60;;;;;;;;;;5108142;28;20931;-68
2021/06/29 12:12:24;;;;;;;2.03;1.50;;;;;;;;;;5102869;28;20527;-71
2021/06/29 12:15:00;;;;;;;2.13;1.30;;;;;;;;;;5109261;28;20438;-67
2021/06/29 12:17:26;;;;;;;2.03;1.40;;;;;;;;;;5105299;28;20452;-67
2021/06/29 12:19:59;;;;;;;2.37;1.30;;;;;;;;;;5107393;28;20453;-67
2021/06/29 12:22:29;;;;;;;3.77;3.13;;;;;;;;;;5101152;28;20419;-67
2021/06/29 12:24:55;;;;;;;2.27;1.43;;;;;;;;;;5104352;28;20469;-67
2021/06/29 12:27:21;;;;;;;2.63;2.00;;;;;;;;;;5102479;28;20762;-67
2021/06/29 12:29:47;;;;;;;2.53;1.57;;;;;;;;;;5108885;28;20419;-72
2021/06/29 12:32:15;;;;;;;2.60;1.80;;;;;;;;;;5109920;28;20990;-69
2021/06/29 12:34:41;;;;;;;2.70;1.53;;;;;;;;;;5113087;28;20439;-68
2021/06/29 12:37:07;;;;;;;2.40;1.67;;;;;;;;;;5108552;28;20517;-69
2021/06/29 12:39:33;;;;;;;3.60;2.47;;;;;;;;;;5109180;28;20465;-68
2021/06/29 12:41:59;;;;;;;3.03;1.60;;;;;;;;;;5103250;28;20414;-69
2021/06/29 12:44:26;;;;;;;3.07;1.53;;;;;;;;;;5109584;28;20433;-64
2021/06/29 12:46:52;;;;;;;2.13;1.27;;;;;;;;;;5103955;28;20419;-67
2021/06/29 12:49:20;;;;;;;2.13;1.50;;;;;;;;;;5106201;28;20418;-67
2021/06/29 12:51:46;;;;;;;2.50;1.93;;;;;;;;;;5093864;28;20446;-70
2021/06/29 12:54:14;;;;;;;2.10;1.60;;;;;;;;;;5094690;28;20439;-73
2021/06/29 12:56:43;;;;;;;3.30;1.80;;;;;;;;;;5087267;28;20438;-69
2021/06/29 12:59:10;;;;;;;3.43;1.70;;;;;;;;;;5091101;28;20451;-69
2021/06/29 13:01:40;;;;;;;2.07;1.47;;;;;;;;;;5090654;28;20427;-71
2021/06/29 13:04:09;;;;;;;1.90;1.40;;;;;;;;;;5091937;28;20500;-71
2021/06/29 13:06:35;;;;;;;2.00;1.60;;;;;;;;;;5090542;28;20466;-71
2021/06/29 13:09:09;;;;;;;2.47;1.87;;;;;;;;;;5091796;28;20869;-71
2021/06/29 13:11:35;;;;;;;2.20;1.70;;;;;;;;;;5091827;28;20467;-71
2021/06/29 13:14:03;;;;;;;4.40;2.20;;;;;;;;;;5092802;28;20967;-71
2021/06/29 13:16:29;;;;;;;2.40;1.50;;;;;;;;;;5090531;28;20431;-71
2021/06/29 13:18:55;;;;;;;2.30;1.47;;;;;;;;;;5093833;28;20414;-73
2021/06/29 13:21:21;;;;;;;2.50;1.70;;;;;;;;;;5090176;28;20415;-71
2021/06/29 13:23:56;;;;;;;2.33;1.50;;;;;;;;;;5081806;28;20473;-71
2021/06/29 13:26:22;;;;;;;2.33;1.40;;;;;;;;;;5091188;28;20420;-71
2021/06/29 13:28:48;;;;;;;2.60;1.67;;;;;;;;;;5092652;28;20854;-71
2021/06/29 13:31:15;;;;;;;2.43;1.40;;;;;;;;;;5093119;28;20411;-71
2021/06/29 13:33:41;;;;;;;2.30;1.57;;;;;;;;;;5087237;28;20450;-71
2021/06/29 13:36:08;;;;;;;3.00;1.70;;;;;;;;;;5088618;28;20423;-70
2021/06/29 13:38:35;;;;;;;3.83;1.67;;;;;;;;;;5093122;28;20424;-70
2021/06/29 13:41:01;;;;;;;2.53;1.90;;;;;;;;;;5091139;28;20828;-70
2021/06/29 13:43:31;;;;;;;2.50;1.83;;;;;;;;;;5085325;28;20447;-71
2021/06/29 13:46:01;;;;;;;2.83;1.80;;;;;;;;;;5092593;28;20440;-74
2021/06/29 13:48:34;;;;;;;4.00;2.30;;;;;;;;;;5090753;28;20915;-71
2021/06/29 13:51:01;;;;;;;2.73;2.40;;;;;;;;;;5092748;28;20640;-70
2021/06/29 13:53:30;;;;;;;3.20;2.30;;;;;;;;;;5087164;28;20460;-71
2021/06/29 13:56:04;;;;;;;4.37;1.90;;;;;;;;;;5092351;28;20435;-71
2021/06/29 13:58:31;;;;;;;2.57;1.93;;;;;;;;;;5088342;28;20928;-71
2021/06/29 14:01:01;;;;;;;3.00;2.13;;;;;;;;;;5089787;28;20458;-71
2021/06/29 14:03:29;;;;;;;3.13;2.03;;;;;;;;;;5089269;28;20451;-71
2021/06/29 14:06:18;;;;;;;3.40;1.70;;;;;;;;;;5089775;28;20420;-71
2021/06/29 14:08:46;;;;;;;3.07;2.20;;;;;;;;;;5090855;28;20411;-71
2021/06/29 14:11:13;;;;;;;3.57;1.70;;;;;;;;;;5092030;28;20810;-71
2021/06/29 14:13:42;;;;;;;3.57;2.03;;;;;;;;;;5091014;28;20458;-71
2021/06/29 14:16:10;;;;;;;3.80;1.97;;;;;;;;;;5091840;28;20434;-71
2021/06/29 14:18:37;;;;;;;3.93;1.97;;;;;;;;;;5088243;28;20431;-71
2021/06/29 14:21:09;;;;;;;2.50;1.90;;;;;;;;;;5091910;28;20466;-71
2021/06/29 14:23:35;;;;;;;3.20;1.80;;;;;;;;;;5091051;28;20484;-71
2021/06/29 14:26:02;;;;;;;2.87;2.10;;;;;;;;;;5092771;28;20427;-71
2021/06/29 14:28:29;;;;;;;3.77;2.03;;;;;;;;;;5090635;28;20423;-70
2021/06/29 14:30:55;;;;;;;2.13;1.63;;;;;;;;;;5090267;28;21065;-70
2021/06/29 14:33:21;;;;;;;5.93;1.90;;;;;;;;;;5082509;28;20800;-70
2021/06/29 14:35:47;;;;;;;3.17;1.80;;;;;;;;;;5091776;28;20539;-71
2021/06/29 14:38:13;;;;;;;2.03;1.47;;;;;;;;;;5089962;28;20428;-71
2021/06/29 14:40:40;;;;;;;7.23;2.10;;;;;;;;;;5087693;28;20459;-71
2021/06/29 14:43:08;;;;;;;2.80;2.00;;;;;;;;;;5091818;28;20443;-71